Time;durP1;ratioP1;P1;durP2;ratioP2;P2;SDS_P1;SDS_P2;PMS_P1;PMS_P2;Temp;Humidity;BMP_temperature;BMP_pressure;BME280_temperature;BME280_humidity;BME280_pressure;Samples;Min_cycle;Max_cycle;Signal;HPM_P1;HPM_P2
2022/01/04 00:02:17;;;;;;;15.00;9.48;;;17.70;68.00;;;;;;4930069;29;20098;-75
2022/01/04 00:04:42;;;;;;;14.63;10.13;;;17.60;67.90;;;;;;4930523;29;20038;-76
2022/01/04 00:07:08;;;;;;;15.50;10.50;;;17.60;67.90;;;;;;4930533;29;20024;-76
2022/01/04 00:09:39;;;;;;;17.60;10.05;;;17.70;67.90;;;;;;4930118;29;20401;-75
2022/01/04 00:14:54;;;;;;;13.32;9.57;;;17.60;67.80;;;;;;4930720;29;20600;-75
2022/01/04 00:17:20;;;;;;;15.85;9.73;;;17.60;67.80;;;;;;4929329;29;20028;-75
2022/01/04 00:19:46;;;;;;;12.38;8.80;;;17.60;67.80;;;;;;4929914;29;20442;-76
2022/01/04 00:22:12;;;;;;;13.77;9.18;;;17.60;67.90;;;;;;4929539;29;20051;-75
2022/01/04 00:24:38;;;;;;;11.73;8.68;;;17.60;67.80;;;;;;4933105;29;20031;-75
2022/01/04 00:27:05;;;;;;;14.43;9.15;;;17.60;67.80;;;;;;4935747;29;20039;-75
2022/01/04 00:29:30;;;;;;;14.35;9.35;;;17.60;67.90;;;;;;4936794;29;20059;-75
2022/01/04 00:31:57;;;;;;;12.77;8.82;;;17.60;67.80;;;;;;4936170;29;20815;-75
2022/01/04 00:34:23;;;;;;;15.32;9.35;;;17.60;67.80;;;;;;4936345;29;20039;-75
2022/01/04 00:36:48;;;;;;;12.15;8.63;;;17.60;67.90;;;;;;4936695;29;20035;-75
2022/01/04 00:39:14;;;;;;;12.20;8.85;;;17.60;67.90;;;;;;4936014;29;20050;-75
2022/01/04 00:41:40;;;;;;;11.60;8.23;;;17.50;67.80;;;;;;4936360;29;20135;-75
2022/01/04 00:44:05;;;;;;;14.10;8.50;;;17.50;67.80;;;;;;4935971;29;20047;-75
2022/01/04 00:46:31;;;;;;;13.90;8.32;;;17.50;67.80;;;;;;4936796;29;20057;-75
2022/01/04 00:49:09;;;;;;;11.50;8.15;;;17.50;67.80;;;;;;4936071;29;20040;-75
2022/01/04 00:51:36;;;;;;;11.93;7.95;;;17.50;67.70;;;;;;4936677;29;20561;-75
2022/01/04 00:54:01;;;;;;;15.25;7.88;;;17.50;67.80;;;;;;4936137;29;20028;-75
2022/01/04 00:56:27;;;;;;;12.15;8.13;;;17.50;67.80;;;;;;4936334;29;20499;-75
2022/01/04 00:58:53;;;;;;;12.57;7.90;;;17.50;67.70;;;;;;4935890;29;20066;-75
2022/01/04 01:01:19;;;;;;;11.73;7.95;;;17.50;67.70;;;;;;4936317;29;20044;-75
2022/01/04 01:03:45;;;;;;;13.45;8.27;;;17.50;67.70;;;;;;4936359;29;20082;-75
2022/01/04 01:06:10;;;;;;;13.23;7.90;;;17.50;67.70;;;;;;4935616;29;20036;-75
2022/01/04 01:08:36;;;;;;;10.35;7.47;;;17.50;67.70;;;;;;4936348;29;20511;-75
2022/01/04 01:11:02;;;;;;;9.00;7.30;;;17.50;67.70;;;;;;4935436;29;20031;-75
2022/01/04 01:13:27;;;;;;;11.38;7.60;;;17.50;67.60;;;;;;4935876;29;20028;-75
2022/01/04 01:15:53;;;;;;;11.23;7.68;;;17.50;67.60;;;;;;4935502;29;20070;-75
2022/01/04 01:18:19;;;;;;;12.45;7.90;;;17.50;67.60;;;;;;4936880;29;20028;-75
2022/01/04 01:20:49;;;;;;;10.48;7.70;;;17.50;67.60;;;;;;4937988;29;20054;-75
2022/01/04 01:23:16;;;;;;;11.27;7.15;;;17.50;67.60;;;;;;4941662;29;20487;-75
2022/01/04 01:25:42;;;;;;;11.40;7.93;;;17.40;67.50;;;;;;4940072;29;20040;-75
2022/01/04 01:28:08;;;;;;;10.07;7.20;;;17.50;67.60;;;;;;4937361;29;20134;-75
2022/01/04 01:30:37;;;;;;;10.57;7.18;;;17.40;67.50;;;;;;4936161;29;20035;-75
2022/01/04 01:33:03;;;;;;;10.32;6.97;;;17.40;67.40;;;;;;4935858;29;20086;-75
2022/01/04 01:35:30;;;;;;;9.90;6.80;;;17.40;67.50;;;;;;4934692;29;20035;-76
2022/01/04 01:37:56;;;;;;;9.43;7.07;;;17.40;67.40;;;;;;4933046;29;20497;-75
2022/01/04 01:40:22;;;;;;;11.68;7.20;;;17.40;67.40;;;;;;4933032;29;20739;-75
2022/01/04 01:42:48;;;;;;;12.20;7.15;;;17.40;67.40;;;;;;4932582;29;20052;-75
2022/01/04 01:45:16;;;;;;;9.65;6.72;;;17.40;67.40;;;;;;4932598;29;20040;-76
2022/01/04 01:47:43;;;;;;;10.10;6.72;;;17.40;67.30;;;;;;4932779;29;20051;-75
2022/01/04 01:50:11;;;;;;;9.27;6.97;;;17.40;67.30;;;;;;4932586;29;20067;-75
2022/01/04 01:52:38;;;;;;;9.85;6.80;;;17.40;67.40;;;;;;4932269;29;20035;-75
2022/01/04 01:55:05;;;;;;;9.90;6.70;;;17.40;67.30;;;;;;4932367;29;20028;-75
2022/01/04 01:57:31;;;;;;;7.88;6.78;;;17.40;67.40;;;;;;4932308;29;20028;-75
2022/01/04 01:59:57;;;;;;;10.70;6.15;;;17.40;67.30;;;;;;4932332;29;20612;-75
2022/01/04 02:02:23;;;;;;;11.15;6.72;;;17.40;67.30;;;;;;4933034;29;20119;-75
2022/01/04 02:04:49;;;;;;;10.88;6.80;;;17.40;67.30;;;;;;4932796;29;20142;-75
2022/01/04 02:07:16;;;;;;;8.57;6.07;;;17.40;67.30;;;;;;4932970;29;20685;-75
2022/01/04 02:09:47;;;;;;;10.27;6.18;;;17.40;67.30;;;;;;4933093;29;20024;-75
2022/01/04 02:12:14;;;;;;;12.35;6.57;;;17.40;67.30;;;;;;4932770;29;20067;-75
2022/01/04 02:14:48;;;;;;;9.32;6.13;;;17.40;67.30;;;;;;4933503;29;20051;-75
2022/01/04 02:17:13;;;;;;;9.60;6.03;;;17.40;67.20;;;;;;4932905;29;20043;-75
2022/01/04 02:19:39;;;;;;;11.45;6.25;;;17.40;67.30;;;;;;4932776;29;20035;-75
2022/01/04 02:22:04;;;;;;;10.18;5.97;;;17.30;67.20;;;;;;4932475;29;20039;-75
2022/01/04 02:24:32;;;;;;;10.45;6.05;;;17.30;67.30;;;;;;4933133;29;20040;-75
2022/01/04 02:26:59;;;;;;;9.75;6.22;;;17.30;67.20;;;;;;4932751;29;20041;-75
2022/01/04 02:29:24;;;;;;;8.18;6.03;;;17.30;67.30;;;;;;4933000;29;20095;-75
2022/01/04 02:31:50;;;;;;;9.70;6.00;;;17.30;67.10;;;;;;4932991;29;20031;-76
2022/01/04 02:34:15;;;;;;;8.85;6.03;;;17.30;67.10;;;;;;4932278;29;20065;-75
2022/01/04 02:36:41;;;;;;;10.65;6.25;;;17.30;67.20;;;;;;4932500;29;20047;-75
2022/01/04 02:39:07;;;;;;;10.25;6.28;;;17.30;67.20;;;;;;4932078;29;20475;-75
2022/01/04 02:41:32;;;;;;;9.63;6.38;;;17.30;67.10;;;;;;4932209;29;20031;-75
2022/01/04 02:43:58;;;;;;;10.30;5.75;;;17.30;67.10;;;;;;4932250;29;20063;-75
2022/01/04 02:46:23;;;;;;;10.80;6.07;;;17.30;67.10;;;;;;4932324;29;20040;-75
2022/01/04 02:48:49;;;;;;;9.13;5.95;;;17.30;67.10;;;;;;4930867;29;20028;-74
2022/01/04 02:51:18;;;;;;;7.90;5.68;;;17.30;67.10;;;;;;4932066;29;20123;-75
2022/01/04 02:53:44;;;;;;;8.57;5.60;;;17.30;67.10;;;;;;4931965;29;20481;-75
2022/01/04 02:56:11;;;;;;;8.38;5.78;;;17.30;67.10;;;;;;4931959;29;20122;-75
2022/01/04 02:58:37;;;;;;;9.25;5.85;;;17.30;67.10;;;;;;4931839;29;20122;-75
2022/01/04 03:01:03;;;;;;;8.20;5.15;;;17.30;67.10;;;;;;4931875;29;20114;-75
2022/01/04 03:03:31;;;;;;;7.70;5.28;;;17.30;67.10;;;;;;4932022;29;20050;-75
2022/01/04 03:05:56;;;;;;;9.43;5.70;;;17.30;67.10;;;;;;4931768;29;20031;-75
2022/01/04 03:08:23;;;;;;;7.28;5.40;;;17.30;67.10;;;;;;4932118;29;20024;-75
2022/01/04 03:10:49;;;;;;;8.38;5.53;;;17.30;67.00;;;;;;4931835;29;20487;-75
2022/01/04 03:13:16;;;;;;;6.72;5.32;;;17.20;67.00;;;;;;4931874;29;20032;-75
2022/01/04 03:15:42;;;;;;;9.73;5.50;;;17.30;67.00;;;;;;4931813;29;20034;-75
2022/01/04 03:18:08;;;;;;;7.93;5.18;;;17.20;66.90;;;;;;4931922;29;20024;-75
2022/01/04 03:20:34;;;;;;;8.65;5.60;;;17.20;67.00;;;;;;4932042;29;20031;-75
2022/01/04 03:23:00;;;;;;;8.82;5.28;;;17.20;67.00;;;;;;4931317;29;20047;-75
2022/01/04 03:25:26;;;;;;;11.18;5.65;;;17.20;66.90;;;;;;4931806;29;20024;-75
2022/01/04 03:27:51;;;;;;;8.40;5.40;;;17.20;66.90;;;;;;4931107;29;20035;-75
2022/01/04 03:30:17;;;;;;;9.00;5.43;;;17.20;66.90;;;;;;4931700;29;20083;-75
2022/01/04 03:32:43;;;;;;;7.97;5.28;;;17.20;66.90;;;;;;4931217;29;20111;-75
2022/01/04 03:35:09;;;;;;;7.18;5.10;;;17.20;66.90;;;;;;4931855;29;20122;-75
2022/01/04 03:37:34;;;;;;;6.88;5.30;;;17.20;66.90;;;;;;4931896;29;20038;-75
2022/01/04 03:40:00;;;;;;;7.63;5.10;;;17.20;66.90;;;;;;4932232;29;20027;-75
2022/01/04 03:42:26;;;;;;;8.45;5.47;;;17.20;66.90;;;;;;4931201;29;20067;-75
2022/01/04 03:44:51;;;;;;;7.60;5.30;;;17.20;66.90;;;;;;4931291;29;20416;-75
2022/01/04 03:47:17;;;;;;;5.97;4.65;;;17.20;66.90;;;;;;4931732;29;20417;-75
2022/01/04 03:49:43;;;;;;;7.32;5.45;;;17.20;66.80;;;;;;4914111;29;20039;-75
2022/01/04 03:52:08;;;;;;;6.85;5.07;;;17.20;66.80;;;;;;4931613;29;20086;-75
2022/01/04 03:54:34;;;;;;;7.65;5.28;;;17.20;66.90;;;;;;4931867;29;20035;-75
2022/01/04 03:57:00;;;;;;;6.47;5.38;;;17.20;66.80;;;;;;4930989;29;20040;-75
2022/01/04 03:59:25;;;;;;;7.43;5.00;;;17.10;66.80;;;;;;4931715;29;20034;-75
2022/01/04 05:43:47;;;;;;;5.75;3.90;;;17.90;64.80;;;;;;4811566;23;20052;-75
2022/01/04 05:46:15;;;;;;;6.05;4.18;;;17.90;64.70;;;;;;4933910;29;20418;-74
2022/01/04 05:48:43;;;;;;;5.82;3.95;;;17.90;64.60;;;;;;4934123;29;20078;-75
2022/01/04 05:51:09;;;;;;;5.13;3.90;;;17.90;64.60;;;;;;4933368;29;20039;-74
2022/01/04 05:53:35;;;;;;;5.00;3.75;;;18.00;64.70;;;;;;4932701;29;20066;-74
2022/01/04 05:56:01;;;;;;;6.15;3.75;;;17.90;64.50;;;;;;4932655;29;20036;-75
2022/01/04 05:58:27;;;;;;;5.18;3.67;;;17.90;64.50;;;;;;4932655;29;20032;-75
2022/01/04 06:00:52;;;;;;;6.05;3.83;;;17.90;64.50;;;;;;4933145;29;20107;-75
2022/01/04 06:03:18;;;;;;;4.47;3.63;;;17.90;64.60;;;;;;4932657;29;20031;-75
2022/01/04 06:05:43;;;;;;;5.53;3.88;;;17.90;64.50;;;;;;4933449;29;20031;-75
2022/01/04 06:08:15;;;;;;;5.50;3.90;;;17.90;64.80;;;;;;4933360;29;20053;-76
2022/01/04 06:10:43;;;;;;;7.07;3.90;;;17.90;65.10;;;;;;4932737;29;20055;-75
2022/01/04 06:15:38;;;;;;;5.32;3.78;;;17.90;65.30;;;;;;4932358;29;20035;-75
2022/01/04 06:18:04;;;;;;;5.88;4.07;;;17.90;65.40;;;;;;4932288;29;20553;-75
2022/01/04 06:20:31;;;;;;;5.90;3.75;;;17.90;65.40;;;;;;4932688;29;20088;-75
2022/01/04 06:22:58;;;;;;;5.35;3.88;;;17.90;65.60;;;;;;4931754;29;20028;-75
2022/01/04 06:25:24;;;;;;;5.85;3.92;;;17.90;65.50;;;;;;4931828;29;20032;-74
2022/01/04 06:27:52;;;;;;;5.43;4.00;;;17.90;65.50;;;;;;4932624;29;20656;-75
2022/01/04 06:30:20;;;;;;;12.40;4.20;;;17.90;65.30;;;;;;4932818;29;20027;-76
2022/01/04 06:32:46;;;;;;;6.35;3.90;;;17.80;65.40;;;;;;4932902;29;20130;-76
2022/01/04 06:35:13;;;;;;;5.32;3.90;;;17.80;65.30;;;;;;4933047;29;20114;-76
2022/01/04 06:37:41;;;;;;;8.32;4.25;;;17.80;65.30;;;;;;4933277;29;20030;-77
2022/01/04 06:40:11;;;;;;;6.75;3.85;;;17.80;65.40;;;;;;4933792;29;20028;-76
2022/01/04 06:42:37;;;;;;;6.75;4.57;;;17.80;66.40;;;;;;4933301;29;20346;-76
2022/01/04 06:45:04;;;;;;;6.25;4.55;;;17.80;65.40;;;;;;4932129;29;20055;-74
2022/01/04 06:47:33;;;;;;;5.70;4.28;;;17.80;65.40;;;;;;4931715;29;20099;-74
2022/01/04 06:49:58;;;;;;;6.82;4.47;;;17.80;65.50;;;;;;4932094;29;20104;-75
2022/01/04 06:52:24;;;;;;;9.60;4.43;;;17.80;65.50;;;;;;4931482;29;20035;-74
2022/01/04 06:54:49;;;;;;;6.85;4.47;;;17.80;65.40;;;;;;4931801;29;20032;-74
2022/01/04 06:57:22;;;;;;;5.65;4.50;;;17.80;65.40;;;;;;4931605;29;20059;-76
2022/01/04 06:59:48;;;;;;;5.78;4.35;;;17.80;65.40;;;;;;4934279;29;20383;-75
2022/01/04 07:02:14;;;;;;;6.88;4.32;;;17.70;65.60;;;;;;4931211;29;20570;-75
2022/01/04 07:04:39;;;;;;;5.70;3.88;;;17.70;65.60;;;;;;4931978;29;20840;-75
2022/01/04 07:07:06;;;;;;;6.85;4.75;;;17.70;65.80;;;;;;4933352;29;20024;-77
2022/01/04 07:09:32;;;;;;;6.95;4.40;;;17.70;66.20;;;;;;4934175;29;20038;-76
2022/01/04 07:11:58;;;;;;;10.00;4.82;;;17.70;66.10;;;;;;4933057;29;20505;-73
2022/01/04 07:14:24;;;;;;;7.32;4.50;;;17.70;66.10;;;;;;4931713;29;20032;-75
2022/01/04 07:16:50;;;;;;;6.10;4.63;;;17.70;66.20;;;;;;4933029;29;20031;-75
2022/01/04 07:19:16;;;;;;;8.18;4.22;;;17.70;66.20;;;;;;4932870;29;20043;-75
2022/01/04 07:21:44;;;;;;;5.95;4.38;;;17.70;66.10;;;;;;4930936;29;20035;-75
2022/01/04 07:24:10;;;;;;;7.90;4.60;;;17.80;66.30;;;;;;4914268;29;20380;-75
2022/01/04 07:26:35;;;;;;;5.22;4.65;;;17.70;66.40;;;;;;4932394;29;20091;-75
2022/01/04 07:29:03;;;;;;;5.45;4.80;;;17.80;66.40;;;;;;4933965;29;20098;-77
2022/01/04 07:31:28;;;;;;;7.15;4.82;;;17.70;66.40;;;;;;4931178;29;20411;-76
2022/01/04 07:33:56;;;;;;;6.30;4.50;;;17.70;66.50;;;;;;4932121;29;20054;-76
2022/01/04 07:36:21;;;;;;;7.35;4.60;;;17.70;66.60;;;;;;4931600;29;20494;-75
2022/01/04 07:38:47;;;;;;;7.45;4.80;;;17.70;66.80;;;;;;4914876;29;20042;-73
2022/01/04 07:41:13;;;;;;;6.47;4.97;;;17.70;66.80;;;;;;4931654;29;20027;-74
2022/01/04 07:43:38;;;;;;;7.40;5.50;;;17.70;66.70;;;;;;4932075;29;20060;-76
2022/01/04 07:46:04;;;;;;;7.03;5.30;;;17.70;66.80;;;;;;4932305;29;20534;-74
2022/01/04 07:48:30;;;;;;;9.32;5.22;;;17.70;66.90;;;;;;4932798;29;20036;-74
2022/01/04 07:51:03;;;;;;;7.25;5.30;;;17.70;66.80;;;;;;4934845;29;20039;-75
2022/01/04 07:53:29;;;;;;;6.78;5.57;;;17.70;67.00;;;;;;4938258;29;20028;-74
2022/01/04 07:55:55;;;;;;;6.60;4.97;;;17.70;67.00;;;;;;4941781;29;20032;-73
2022/01/04 07:58:22;;;;;;;8.35;5.10;;;17.70;67.10;;;;;;4938243;29;20083;-74
2022/01/04 08:00:48;;;;;;;17.67;5.72;;;17.70;67.10;;;;;;4935259;29;20040;-74
2022/01/04 08:03:13;;;;;;;11.75;5.78;;;17.70;67.10;;;;;;4931838;29;20542;-74
2022/01/04 08:05:39;;;;;;;9.07;5.85;;;17.70;67.10;;;;;;4932175;29;20036;-74
2022/01/04 08:08:06;;;;;;;8.05;6.30;;;17.70;66.80;;;;;;4931306;29;20506;-74
2022/01/04 08:10:32;;;;;;;10.90;7.25;;;17.70;66.60;;;;;;4930795;29;20031;-74
2022/01/04 08:12:58;;;;;;;15.13;6.60;;;17.70;66.50;;;;;;4930809;29;20036;-74
2022/01/04 08:15:25;;;;;;;13.82;6.13;;;17.70;66.50;;;;;;4930595;29;20042;-72
2022/01/04 08:17:51;;;;;;;9.85;5.82;;;17.70;66.70;;;;;;4929665;29;20032;-71
2022/01/04 08:20:17;;;;;;;14.27;6.28;;;17.70;67.00;;;;;;4930537;29;20058;-72
2022/01/04 08:22:43;;;;;;;14.40;6.10;;;17.70;67.20;;;;;;4930368;29;20518;-74
2022/01/04 08:25:10;;;;;;;12.18;5.75;;;17.80;67.40;;;;;;4930433;29;20059;-73
2022/01/04 08:27:36;;;;;;;10.43;5.43;;;17.80;67.20;;;;;;4930557;29;20040;-73
2022/01/04 08:30:06;;;;;;;12.38;5.10;;;17.90;67.10;;;;;;4931350;29;20039;-74
2022/01/04 08:32:32;;;;;;;9.45;5.10;;;18.00;66.90;;;;;;4930390;29;20027;-73
2022/01/04 08:34:57;;;;;;;12.05;4.85;;;18.10;66.80;;;;;;4930201;29;20376;-73
2022/01/04 08:37:23;;;;;;;10.52;5.43;;;18.10;66.60;;;;;;4930747;29;20039;-75
2022/01/04 08:39:48;;;;;;;10.15;5.28;;;18.20;66.60;;;;;;4931317;29;20074;-74
2022/01/04 08:42:14;;;;;;;9.75;4.57;;;18.30;66.50;;;;;;4929830;29;20379;-74
2022/01/04 08:44:40;;;;;;;11.15;5.07;;;18.40;66.50;;;;;;4930612;29;20079;-75
2022/01/04 08:47:07;;;;;;;12.65;5.22;;;18.40;66.50;;;;;;4933734;29;20016;-72
2022/01/04 08:49:34;;;;;;;11.02;4.63;;;18.50;66.80;;;;;;4933831;29;20039;-73
2022/01/04 08:52:00;;;;;;;9.75;4.43;;;18.50;66.80;;;;;;4933211;29;20059;-73
2022/01/04 08:54:26;;;;;;;13.32;4.90;;;18.60;66.60;;;;;;4933554;29;20213;-73
2022/01/04 08:56:54;;;;;;;11.98;4.53;;;18.60;66.30;;;;;;4932878;29;20779;-72
2022/01/04 08:59:20;;;;;;;11.82;4.25;;;18.60;66.00;;;;;;4933245;29;20054;-73
2022/01/04 09:01:46;;;;;;;10.02;4.18;;;18.70;65.90;;;;;;4933776;29;20482;-72
2022/01/04 09:04:12;;;;;;;9.48;4.13;;;18.70;65.80;;;;;;4933845;29;20042;-73
2022/01/04 09:06:37;;;;;;;7.05;3.85;;;18.70;65.60;;;;;;4933193;29;20020;-73
2022/01/04 09:09:04;;;;;;;6.65;3.60;;;18.80;65.40;;;;;;4933265;29;20051;-74
2022/01/04 09:11:30;;;;;;;6.78;3.70;;;18.80;65.20;;;;;;4933212;29;20656;-74
2022/01/04 09:14:12;;;;;;;5.05;3.35;;;18.80;65.10;;;;;;4933715;29;20046;-74
2022/01/04 09:19:24;;;;;;;5.90;3.42;;;18.90;64.80;;;;;;4933094;29;20098;-73
2022/01/04 09:21:50;;;;;;;8.63;3.58;;;19.00;64.70;;;;;;4933013;29;20032;-74
2022/01/04 09:24:16;;;;;;;5.35;3.25;;;18.90;64.50;;;;;;4933342;29;20044;-74
2022/01/04 09:26:41;;;;;;;9.05;3.50;;;18.90;64.50;;;;;;4932970;29;20040;-74
2022/01/04 09:29:07;;;;;;;7.35;3.40;;;18.90;64.40;;;;;;4932614;29;20552;-73
2022/01/04 09:31:33;;;;;;;9.38;3.30;;;18.90;64.40;;;;;;4933991;29;20036;-74
2022/01/04 09:34:00;;;;;;;7.00;3.00;;;19.00;64.40;;;;;;4934828;29;20033;-74
2022/01/04 09:36:31;;;;;;;4.38;3.30;;;19.00;64.20;;;;;;4920273;29;20027;-73
2022/01/04 09:38:58;;;;;;;4.47;2.75;;;19.00;64.00;;;;;;4938740;29;20030;-73
2022/01/04 09:41:23;;;;;;;5.50;3.35;;;19.10;64.00;;;;;;4938116;29;20042;-74
2022/01/04 09:43:50;;;;;;;6.55;3.25;;;19.10;63.90;;;;;;4932825;29;20063;-73
2022/01/04 09:46:15;;;;;;;5.15;2.63;;;19.10;64.70;;;;;;4932860;29;20035;-73
2022/01/04 09:48:41;;;;;;;4.80;3.10;;;19.10;63.50;;;;;;4932778;29;20028;-73
2022/01/04 09:51:10;;;;;;;8.77;2.83;;;19.20;63.50;;;;;;4933109;29;20031;-73
2022/01/04 09:53:36;;;;;;;10.10;2.70;;;19.20;63.40;;;;;;4932253;29;20179;-73
2022/01/04 09:56:02;;;;;;;4.43;2.35;;;19.30;63.30;;;;;;4932797;29;20530;-74
2022/01/04 09:58:28;;;;;;;4.38;2.53;;;19.30;63.00;;;;;;4931775;29;20068;-73
2022/01/04 10:00:55;;;;;;;4.32;2.55;;;19.40;62.80;;;;;;4932373;29;20023;-74
2022/01/04 10:03:25;;;;;;;5.72;2.83;;;19.40;62.80;;;;;;4932583;29;20040;-73
2022/01/04 10:06:14;;;;;;;6.03;2.40;;;19.40;62.70;;;;;;4932566;29;20534;-74
2022/01/04 10:09:04;;;;;;;3.28;2.53;;;19.40;62.60;;;;;;4932300;29;20123;-73
2022/01/04 10:11:37;;;;;;;7.68;2.85;;;19.40;62.60;;;;;;4933206;29;20034;-74
2022/01/04 10:14:32;;;;;;;5.65;2.75;;;19.40;62.50;;;;;;4933183;29;20023;-73
2022/01/04 10:17:06;;;;;;;2.53;1.85;;;19.50;62.40;;;;;;4932221;29;20047;-73
2022/01/04 10:19:33;;;;;;;6.90;2.30;;;19.40;62.30;;;;;;4933038;29;20055;-73
2022/01/04 10:22:23;;;;;;;7.18;2.45;;;19.40;62.50;;;;;;4931915;29;20566;-73
2022/01/04 10:25:04;;;;;;;5.75;2.40;;;19.40;62.30;;;;;;4932066;29;20122;-74
2022/01/04 10:27:31;;;;;;;3.70;2.30;;;19.40;62.50;;;;;;4932347;29;20109;-74
2022/01/04 10:30:16;;;;;;;6.68;2.38;;;19.30;63.10;;;;;;4932419;29;20064;-75
2022/01/04 10:32:58;;;;;;;8.07;2.40;;;19.30;63.10;;;;;;4932532;29;20081;-74
2022/01/04 10:35:26;;;;;;;7.05;2.55;;;19.40;63.40;;;;;;4932029;29;20034;-74
2022/01/04 10:37:53;;;;;;;12.55;3.03;;;19.40;63.70;;;;;;4932086;29;20494;-74
2022/01/04 10:40:19;;;;;;;10.63;3.15;;;19.40;64.00;;;;;;4931645;29;20106;-72
2022/01/04 10:42:44;;;;;;;19.55;2.60;;;19.40;64.40;;;;;;4931653;29;20055;-71
2022/01/04 10:45:31;;;;;;;19.52;3.05;;;19.30;64.50;;;;;;4930370;29;20062;-72
2022/01/04 10:48:19;;;;;;;15.23;2.90;;;19.30;64.70;;;;;;4931735;29;20032;-70
2022/01/04 10:50:52;;;;;;;15.70;2.38;;;19.40;64.90;;;;;;4932047;29;20035;-72
2022/01/04 10:53:24;;;;;;;14.75;2.55;;;19.40;64.90;;;;;;4931730;29;20132;-73
2022/01/04 10:55:55;;;;;;;11.85;2.47;;;19.40;64.90;;;;;;4931737;29;20407;-74
2022/01/04 10:58:24;;;;;;;14.25;2.88;;;19.50;64.90;;;;;;4931792;29;20035;-73
2022/01/04 11:01:22;;;;;;;15.10;2.75;;;19.50;65.00;;;;;;4931223;29;20042;-73
2022/01/04 11:03:55;;;;;;;11.00;2.45;;;19.60;65.00;;;;;;4931352;29;20043;-73
2022/01/04 11:06:26;;;;;;;17.23;2.80;;;19.60;64.90;;;;;;4931139;29;20091;-73
2022/01/04 11:08:52;;;;;;;16.33;2.80;;;19.60;64.80;;;;;;4930647;29;20041;-72
2022/01/04 11:11:18;;;;;;;17.42;2.65;;;19.60;64.80;;;;;;4931864;29;20036;-71
2022/01/04 11:13:43;;;;;;;11.82;2.30;;;19.50;64.80;;;;;;4931466;29;20031;-72
2022/01/04 11:16:10;;;;;;;12.50;2.60;;;19.50;64.80;;;;;;4931113;29;20110;-70
2022/01/04 11:18:40;;;;;;;10.23;2.35;;;19.50;64.90;;;;;;4932065;29;20063;-72
2022/01/04 11:21:24;;;;;;;9.05;2.60;;;19.40;64.90;;;;;;4936433;29;20036;-71
2022/01/04 11:23:50;;;;;;;25.65;3.60;;;19.50;65.00;;;;;;4938494;29;20039;-67
2022/01/04 11:26:17;;;;;;;31.15;3.83;;;19.40;65.40;;;;;;4937137;29;20030;-69
2022/01/04 11:28:46;;;;;;;20.88;3.20;;;19.40;65.90;;;;;;4931117;29;20259;-73
2022/01/04 11:31:30;;;;;;;27.55;3.47;;;19.50;66.10;;;;;;4932193;29;20047;-74
2022/01/04 11:33:58;;;;;;;19.02;2.60;;;19.50;66.50;;;;;;4930988;29;20513;-74
2022/01/04 11:36:25;;;;;;;49.15;5.15;;;19.60;66.20;;;;;;4930170;29;20027;-72
2022/01/04 11:38:51;;;;;;;40.47;4.25;;;19.60;67.20;;;;;;4930216;29;20118;-72
2022/01/04 11:41:39;;;;;;;37.80;3.78;;;19.50;68.40;;;;;;4931221;29;20115;-71
2022/01/04 11:44:23;;;;;;;36.08;4.05;;;19.50;67.80;;;;;;4929748;29;20595;-71
2022/01/04 11:47:02;;;;;;;29.80;3.90;;;19.50;69.50;;;;;;4931104;29;20096;-71
2022/01/04 11:49:28;;;;;;;42.90;4.28;;;19.50;69.10;;;;;;4930777;29;20111;-71
2022/01/04 11:51:53;;;;;;;76.20;6.47;;;19.40;69.50;;;;;;4931044;29;20142;-71
2022/01/04 11:54:27;;;;;;;64.78;5.40;;;19.40;70.60;;;;;;4930906;29;20455;-69
2022/01/04 11:57:02;;;;;;;42.45;5.68;;;19.40;71.20;;;;;;4930566;29;20426;-72
2022/01/04 11:59:33;;;;;;;61.17;10.90;;;19.40;71.30;;;;;;4930341;29;20023;-71
2022/01/04 12:02:31;;;;;;;43.83;9.77;;;19.40;72.00;;;;;;4930380;29;20079;-71
2022/01/04 12:04:59;;;;;;;41.05;8.75;;;19.40;72.50;;;;;;4930688;29;20039;-70
2022/01/04 12:07:44;;;;;;;45.90;10.35;;;19.40;72.30;;;;;;4930881;29;20644;-70
2022/01/04 12:10:19;;;;;;;35.10;8.82;;;19.40;72.60;;;;;;4930452;29;20027;-71
2022/01/04 12:13:09;;;;;;;28.45;8.20;;;19.30;72.50;;;;;;4930464;29;20091;-70
2022/01/04 12:15:34;;;;;;;33.60;8.50;;;19.40;72.40;;;;;;4931155;29;20134;-71
2022/01/04 12:18:06;;;;;;;38.15;8.52;;;19.30;72.20;;;;;;4930898;29;20107;-70
2022/01/04 12:20:43;;;;;;;31.92;7.20;;;19.30;72.10;;;;;;4930063;29;20028;-70
2022/01/04 12:23:31;;;;;;;30.63;7.30;;;19.30;72.00;;;;;;4930467;29;20491;-68
2022/01/04 12:26:02;;;;;;;38.47;7.63;;;19.20;72.00;;;;;;4930130;29;20079;-70
2022/01/04 12:28:32;;;;;;;35.75;7.47;;;19.20;72.30;;;;;;4930742;29;20031;-68
2022/01/04 12:31:16;;;;;;;35.60;6.45;;;19.20;72.50;;;;;;4930755;29;20550;-72
2022/01/04 12:33:59;;;;;;;32.33;6.90;;;19.20;72.60;;;;;;4930150;29;20036;-70
2022/01/04 12:36:33;;;;;;;;;;;19.20;72.20;;;;;;4931327;29;20107;-71
2022/01/04 12:39:02;;;;;;;33.25;6.70;;;19.10;71.40;;;;;;4930776;29;20364;-70
2022/01/04 12:41:30;;;;;;;25.30;5.57;;;19.10;71.50;;;;;;4931031;29;20027;-70
2022/01/04 12:43:57;;;;;;;28.33;6.20;;;19.00;71.40;;;;;;4929902;29;20063;-71
2022/01/04 12:46:28;;;;;;;31.33;6.22;;;19.10;71.10;;;;;;4930786;29;20031;-70
2022/01/04 12:49:02;;;;;;;30.25;6.57;;;19.10;70.90;;;;;;4930131;29;20035;-71
2022/01/04 12:51:29;;;;;;;24.25;6.30;;;19.00;70.80;;;;;;4930767;29;20031;-70
2022/01/04 12:53:59;;;;;;;22.75;6.15;;;19.00;70.90;;;;;;4930792;29;20024;-71
2022/01/04 12:56:27;;;;;;;47.28;7.15;;;19.00;71.20;;;;;;4930690;29;20035;-71
2022/01/04 12:58:53;;;;;;;49.10;6.43;;;19.00;71.10;;;;;;4930677;29;20040;-74
2022/01/04 13:01:23;;;;;;;43.70;6.55;;;19.00;70.80;;;;;;4931150;29;20034;-71
2022/01/04 13:03:51;;;;;;;37.83;6.22;;;19.00;71.00;;;;;;4931459;29;20023;-72
2022/01/04 13:06:16;;;;;;;43.25;5.80;;;19.00;71.20;;;;;;4933308;29;20100;-72
2022/01/04 13:08:50;;;;;;;35.45;6.07;;;19.00;71.30;;;;;;4932617;29;20039;-72
2022/01/04 13:11:16;;;;;;;37.85;5.95;;;19.00;71.30;;;;;;4931978;29;20032;-71
2022/01/04 13:13:42;;;;;;;31.48;5.70;;;18.90;71.40;;;;;;4930581;29;20027;-74
2022/01/04 13:16:22;;;;;;;24.70;5.00;;;18.90;71.40;;;;;;4930731;29;20036;-72
2022/01/04 13:18:48;;;;;;;25.80;5.10;;;19.00;71.70;;;;;;4930164;29;20032;-71
2022/01/04 13:21:14;;;;;;;36.13;5.28;;;18.90;71.80;;;;;;4933235;29;20063;-75
2022/01/04 13:23:42;;;;;;;31.02;5.05;;;18.90;72.60;;;;;;4933014;29;20039;-75
2022/01/04 13:26:14;;;;;;;38.80;5.28;;;19.00;72.90;;;;;;4936453;29;20087;-73
2022/01/04 13:28:41;;;;;;;37.50;4.97;;;19.00;73.20;;;;;;4936192;29;20355;-72
2022/01/04 13:31:18;;;;;;;22.50;5.43;;;19.00;73.00;;;;;;4936453;29;20032;-71
2022/01/04 13:33:44;;;;;;;25.90;5.05;;;19.00;73.30;;;;;;4939666;29;20028;-71
2022/01/04 13:36:11;;;;;;;28.33;4.53;;;19.00;73.30;;;;;;4938878;29;20094;-72
2022/01/04 13:38:38;;;;;;;26.92;4.15;;;19.00;73.50;;;;;;4940146;29;20028;-74
2022/01/04 13:41:05;;;;;;;26.08;4.40;;;19.00;73.50;;;;;;4940019;29;20122;-74
2022/01/04 13:43:35;;;;;;;25.45;4.40;;;19.00;73.50;;;;;;4939310;29;20059;-73
2022/01/04 13:46:26;;;;;;;18.50;3.67;;;19.00;73.70;;;;;;4940055;29;20167;-73
2022/01/04 13:48:52;;;;;;;32.80;4.90;;;19.00;73.70;;;;;;4935454;29;20035;-75
2022/01/04 13:51:20;;;;;;;51.33;5.50;;;19.00;73.50;;;;;;4932568;29;20513;-73
2022/01/04 13:53:52;;;;;;;29.27;4.13;;;19.00;73.60;;;;;;4932858;29;20098;-73
2022/01/04 13:56:24;;;;;;;22.37;4.17;;;19.00;73.40;;;;;;4932981;29;20039;-71
2022/01/04 13:58:58;;;;;;;24.75;4.38;;;19.00;73.20;;;;;;4932984;29;20648;-69
2022/01/04 14:01:40;;;;;;;25.27;3.58;;;19.00;73.30;;;;;;4932849;29;20039;-71
2022/01/04 14:04:09;;;;;;;19.47;3.60;;;18.90;73.40;;;;;;4932783;29;20569;-72
2022/01/04 14:06:49;;;;;;;20.90;3.30;;;18.90;73.30;;;;;;4932544;29;20027;-72
2022/01/04 14:09:27;;;;;;;21.88;3.58;;;18.90;73.40;;;;;;4932677;29;20031;-73
2022/01/04 14:12:00;;;;;;;22.65;3.72;;;18.90;73.40;;;;;;4932010;29;20105;-72
2022/01/04 14:14:29;;;;;;;23.35;3.65;;;18.80;73.30;;;;;;4931955;29;20648;-71
2022/01/04 14:17:06;;;;;;;20.65;4.15;;;18.80;73.20;;;;;;4932364;29;20039;-73
2022/01/04 14:19:52;;;;;;;22.63;3.90;;;18.80;72.90;;;;;;4931604;29;20032;-72
2022/01/04 14:22:20;;;;;;;22.20;4.15;;;18.80;72.60;;;;;;4931756;29;20055;-72
2022/01/04 14:24:47;;;;;;;22.63;3.90;;;18.80;72.60;;;;;;4931912;29;20031;-73
2022/01/04 14:27:41;;;;;;;19.75;4.15;;;18.80;72.40;;;;;;4932109;29;20051;-74
2022/01/04 14:30:16;;;;;;;21.75;3.92;;;18.80;72.70;;;;;;4931291;29;20057;-75
2022/01/04 14:32:46;;;;;;;23.83;3.78;;;18.80;72.50;;;;;;4931377;29;20036;-74
2022/01/04 14:35:20;;;;;;;15.65;3.55;;;18.70;72.60;;;;;;4931924;29;20032;-70
2022/01/04 14:37:49;;;;;;;17.85;3.65;;;18.70;72.60;;;;;;4932358;29;20537;-71
2022/01/04 14:40:17;;;;;;;16.92;3.40;;;18.70;72.60;;;;;;4932608;29;20035;-71